createdAt,value
2018-09-10T00:00:05.504Z,17.95
2018-09-10T00:03:05.434Z,18.09
2018-09-10T00:06:05.426Z,18.22
2018-09-10T00:09:05.360Z,18.47
2018-09-10T00:12:05.344Z,18.57
2018-09-10T00:15:05.309Z,18.72
2018-09-10T00:18:05.308Z,18.74
2018-09-10T00:21:05.243Z,18.72
2018-09-10T00:24:05.287Z,18.59
2018-09-10T00:27:05.163Z,18.54
2018-09-10T00:30:05.184Z,18.77
2018-09-10T00:33:05.108Z,18.68
2018-09-10T00:36:05.112Z,18.55
2018-09-10T00:39:05.060Z,18.58
2018-09-10T00:42:05.032Z,18.61
2018-09-10T00:45:04.993Z,18.61
2018-09-10T00:48:04.952Z,18.47
2018-09-10T00:51:04.911Z,18.42
2018-09-10T00:54:04.865Z,18.18
2018-09-10T00:57:04.843Z,17.76
2018-09-10T01:00:04.854Z,17.97
2018-09-10T01:03:04.781Z,17.78
2018-09-10T01:06:04.781Z,17.53
2018-09-10T01:09:04.743Z,17.40
2018-09-10T01:12:04.670Z,17.40
2018-09-10T01:15:04.637Z,17.50
2018-09-10T01:18:04.652Z,17.51
2018-09-10T01:21:04.583Z,17.55
2018-09-10T01:24:04.578Z,17.63
2018-09-10T01:27:04.507Z,17.69
2018-09-10T01:30:04.498Z,17.67
2018-09-10T01:33:04.459Z,17.66
2018-09-10T01:36:04.428Z,17.69
2018-09-10T01:39:04.356Z,17.64
2018-09-10T01:42:04.365Z,17.59
2018-09-10T01:45:04.292Z,17.46
2018-09-10T01:48:04.306Z,17.53
2018-09-10T01:51:04.234Z,17.44
2018-09-10T01:54:04.193Z,17.41
2018-09-10T01:57:04.156Z,17.35
2018-09-10T02:00:04.148Z,17.32
2018-09-10T02:03:04.115Z,17.29
2018-09-10T02:06:04.073Z,17.22
2018-09-10T02:09:04.033Z,17.20
2018-09-10T02:12:04.003Z,17.11
2018-09-10T02:15:03.953Z,17.00
2018-09-10T02:18:03.947Z,16.86
2018-09-10T02:21:03.888Z,16.78
2018-09-10T02:24:03.869Z,16.68
2018-09-10T02:27:03.832Z,16.65
2018-09-10T02:30:03.797Z,16.63
2018-09-10T02:33:03.758Z,16.58
2018-09-10T02:36:03.723Z,16.53
2018-09-10T02:39:03.687Z,16.55
2018-09-10T02:42:03.718Z,16.38
2018-09-10T02:45:03.660Z,16.42
2018-09-10T02:48:03.595Z,16.44
2018-09-10T02:51:03.564Z,16.55
2018-09-10T02:54:03.522Z,16.59
2018-09-10T02:57:03.481Z,16.70
2018-09-10T03:00:03.464Z,16.65
2018-09-10T03:03:03.428Z,16.52
2018-09-10T03:06:03.409Z,16.41
2018-09-10T03:09:03.432Z,16.45
2018-09-10T03:12:03.341Z,16.44
2018-09-10T03:15:03.277Z,16.52
2018-09-10T03:18:03.405Z,16.56
2018-09-10T03:21:03.226Z,16.70
2018-09-10T03:24:03.284Z,16.81
2018-09-10T03:27:03.262Z,16.80
2018-09-10T03:30:03.160Z,16.73
2018-09-10T03:33:03.083Z,16.77
2018-09-10T03:36:03.074Z,16.80
2018-09-10T03:39:03.032Z,16.80
2018-09-10T03:42:02.993Z,16.81
2018-09-10T03:45:02.988Z,16.88
2018-09-10T03:48:02.941Z,16.78
2018-09-10T03:51:02.875Z,16.80
2018-09-10T03:54:02.890Z,16.70
2018-09-10T03:57:03.717Z,16.67
2018-09-10T04:00:02.815Z,16.58
2018-09-10T04:03:02.793Z,16.60
2018-09-10T04:06:02.747Z,16.67
2018-09-10T04:09:02.687Z,16.68
2018-09-10T04:12:02.673Z,16.56
2018-09-10T04:15:02.611Z,16.56
2018-09-10T04:18:02.594Z,16.45
2018-09-10T04:21:02.554Z,16.38
2018-09-10T04:24:02.549Z,16.44
2018-09-10T04:27:02.478Z,16.42
2018-09-10T04:30:02.490Z,16.44
2018-09-10T04:33:02.406Z,16.37
2018-09-10T04:36:02.471Z,16.35
2018-09-10T04:39:02.353Z,16.35
2018-09-10T04:42:02.318Z,16.22
2018-09-10T04:45:02.305Z,16.31
2018-09-10T04:48:02.304Z,16.25
2018-09-10T04:51:02.212Z,16.31
2018-09-10T04:54:02.207Z,16.30
2018-09-10T04:57:02.158Z,16.27
2018-09-10T05:00:02.119Z,16.23
2018-09-10T05:03:02.080Z,16.27
2018-09-10T05:06:02.068Z,16.22
2018-09-10T05:09:02.009Z,16.26
2018-09-10T05:12:02.011Z,16.27
2018-09-10T05:15:01.938Z,16.26
2018-09-10T05:18:01.919Z,16.31
2018-09-10T05:21:01.876Z,16.22
2018-09-10T05:24:01.862Z,16.20
2018-09-10T05:27:01.806Z,16.14
2018-09-10T05:30:01.806Z,16.20
2018-09-10T05:33:01.758Z,16.20
2018-09-10T05:36:01.720Z,16.23
2018-09-10T05:39:01.700Z,16.23
2018-09-10T05:42:01.666Z,16.37
2018-09-10T05:45:01.610Z,16.25
2018-09-10T05:48:01.631Z,16.31
2018-09-10T05:51:01.546Z,16.49
2018-09-10T05:54:01.509Z,16.45
2018-09-10T05:57:01.546Z,16.37
2018-09-10T06:00:01.731Z,16.38
2018-09-10T06:03:01.424Z,16.38
2018-09-10T06:06:01.398Z,16.50
2018-09-10T06:09:01.354Z,16.44
2018-09-10T06:12:02.189Z,16.48
2018-09-10T06:15:01.271Z,16.59
2018-09-10T06:18:01.269Z,16.68
2018-09-10T06:21:01.209Z,16.77
2018-09-10T06:24:01.176Z,16.73
2018-09-10T06:27:01.225Z,16.80
2018-09-10T06:30:01.108Z,16.88
2018-09-10T06:33:01.091Z,16.80
2018-09-10T06:36:01.046Z,16.90
2018-09-10T06:39:01.032Z,16.93
2018-09-10T06:42:02.729Z,17.07
2018-09-10T06:45:00.926Z,17.14
2018-09-10T06:48:00.947Z,17.23
2018-09-10T06:51:00.863Z,17.38
2018-09-10T06:54:00.867Z,17.59
2018-09-10T06:57:00.826Z,17.74
2018-09-10T07:00:00.801Z,17.67
2018-09-10T07:03:00.726Z,17.67
2018-09-10T07:06:00.753Z,17.71
2018-09-10T07:09:00.673Z,17.70
2018-09-10T07:12:00.666Z,17.74
2018-09-10T07:15:00.620Z,17.99
2018-09-10T07:18:00.598Z,18.04
2018-09-10T07:21:00.528Z,18.39
2018-09-10T07:24:00.517Z,19.23
2018-09-10T07:27:00.472Z,19.36
2018-09-10T07:30:00.470Z,19.48
2018-09-10T07:33:00.432Z,19.25
2018-09-10T07:36:00.399Z,19.20
2018-09-10T07:39:00.330Z,19.21
2018-09-10T07:42:00.322Z,19.54
2018-09-10T07:45:00.305Z,20.13
2018-09-10T07:48:00.278Z,20.59
2018-09-10T07:51:00.232Z,21.02
2018-09-10T07:54:00.170Z,20.69
2018-09-10T07:57:00.168Z,20.65
2018-09-10T08:00:00.113Z,20.05
2018-09-10T08:03:00.101Z,20.25
2018-09-10T08:06:00.124Z,20.46
2018-09-10T08:09:00.022Z,20.84
2018-09-10T08:11:59.967Z,22.59
2018-09-10T08:15:00.683Z,23.67
2018-09-10T08:17:59.952Z,23.42
2018-09-10T08:20:59.897Z,23.08
2018-09-10T08:24:00.264Z,22.43
2018-09-10T08:26:59.807Z,22.80
2018-09-10T08:29:59.804Z,22.75
2018-09-10T08:32:59.730Z,22.65
2018-09-10T08:35:59.745Z,22.53
2018-09-10T08:38:59.661Z,22.10
2018-09-10T08:41:59.654Z,22.31
2018-09-10T08:44:59.608Z,22.27
2018-09-10T08:47:59.603Z,23.49
2018-09-10T08:50:59.548Z,23.97
2018-09-10T08:53:59.595Z,23.43
2018-09-10T08:56:59.502Z,23.75
2018-09-10T08:59:59.452Z,24.17
2018-09-10T09:02:59.402Z,23.11
2018-09-10T09:05:59.471Z,22.71
2018-09-10T09:08:59.333Z,22.92
2018-09-10T09:11:59.388Z,23.58
2018-09-10T09:14:59.331Z,23.11
2018-09-10T09:17:59.270Z,23.62
2018-09-10T09:20:59.255Z,25.34
2018-09-10T09:24:00.693Z,25.72
2018-09-10T09:26:59.156Z,24.92
2018-09-10T09:29:59.157Z,24.45
2018-09-10T09:32:59.084Z,23.58
2018-09-10T09:35:59.075Z,24.23
2018-09-10T09:38:59.035Z,25.91
2018-09-10T09:41:59.041Z,25.84
2018-09-10T09:44:58.954Z,27.43
2018-09-10T09:47:58.938Z,27.57
2018-09-10T09:50:58.895Z,26.12
2018-09-10T09:53:58.905Z,25.98
2018-09-10T09:56:58.833Z,26.50
2018-09-10T09:59:58.890Z,26.80
2018-09-10T10:02:58.834Z,27.95
2018-09-10T10:05:58.738Z,27.84
2018-09-10T10:08:58.746Z,28.38
2018-09-10T10:11:58.732Z,29.79
2018-09-10T10:14:58.656Z,29.01
2018-09-10T10:17:58.613Z,29.18
2018-09-10T10:20:58.572Z,28.47
2018-09-10T10:23:58.565Z,28.81
2018-09-10T10:26:58.516Z,27.19
2018-09-10T10:29:58.506Z,25.91
2018-09-10T10:32:58.448Z,25.86
2018-09-10T10:35:58.715Z,25.65
2018-09-10T10:38:58.396Z,24.45
2018-09-10T10:41:58.366Z,24.13
2018-09-10T10:44:58.323Z,24.41
2018-09-10T10:47:58.314Z,24.02
2018-09-10T10:50:58.263Z,24.69
2018-09-10T10:53:58.243Z,24.94
2018-09-10T10:56:58.200Z,24.91
2018-09-10T10:59:58.183Z,24.08
2018-09-10T11:02:58.129Z,24.05
2018-09-10T11:05:58.117Z,23.71
2018-09-10T11:08:58.070Z,24.29
2018-09-10T11:11:58.040Z,24.31
2018-09-10T11:14:58.018Z,24.49
2018-09-10T11:17:58.001Z,24.29
2018-09-10T11:20:57.936Z,24.12
2018-09-10T11:23:57.908Z,23.80
2018-09-10T11:26:57.875Z,24.68
2018-09-10T11:29:57.865Z,24.32
2018-09-10T11:32:57.813Z,24.49
2018-09-10T11:35:58.693Z,24.26
2018-09-10T11:38:57.742Z,24.52
2018-09-10T11:41:57.720Z,25.74
2018-09-10T11:44:57.693Z,26.65
2018-09-10T11:47:57.656Z,26.91
2018-09-10T11:50:57.630Z,26.67
2018-09-10T11:53:57.593Z,27.31
2018-09-10T11:56:57.536Z,27.29
2018-09-10T11:59:57.531Z,27.51
2018-09-10T12:02:57.505Z,26.67
2018-09-10T12:05:57.467Z,26.42
2018-09-10T12:08:57.419Z,27.48
2018-09-10T12:11:57.419Z,26.87
2018-09-10T12:14:57.376Z,26.83
2018-09-10T12:17:57.346Z,26.76
2018-09-10T12:20:57.297Z,27.50
2018-09-10T12:23:57.278Z,26.68
2018-09-10T12:26:57.307Z,25.71
2018-09-10T12:29:57.281Z,26.01
2018-09-10T12:32:57.292Z,25.47
2018-09-10T12:35:57.193Z,25.54
2018-09-10T12:38:57.154Z,25.43
2018-09-10T12:41:58.736Z,25.24
2018-09-10T12:44:57.074Z,26.11
2018-09-10T12:47:57.034Z,26.69
2018-09-10T12:50:56.985Z,27.09
2018-09-10T12:53:56.959Z,27.95
2018-09-10T12:56:56.915Z,26.57
2018-09-10T12:59:56.912Z,26.59
2018-09-10T13:02:56.845Z,26.08
2018-09-10T13:05:56.896Z,25.89
2018-09-10T13:08:56.899Z,25.79
2018-09-10T13:11:56.782Z,26.28
2018-09-10T13:14:56.719Z,26.40
2018-09-10T13:17:56.741Z,25.69
2018-09-10T13:20:56.662Z,25.97
2018-09-10T13:23:56.657Z,25.94
2018-09-10T13:26:56.596Z,25.54
2018-09-10T13:29:56.615Z,25.47
2018-09-10T13:32:56.538Z,25.17
2018-09-10T13:35:56.521Z,25.39
2018-09-10T13:38:56.467Z,25.38
2018-09-10T13:41:56.491Z,25.52
2018-09-10T13:44:56.418Z,24.92
2018-09-10T13:47:56.394Z,24.53
2018-09-10T13:50:56.363Z,24.52
2018-09-10T13:53:56.321Z,24.47
2018-09-10T13:56:56.489Z,24.44
2018-09-10T13:59:56.268Z,24.05
2018-09-10T14:02:56.234Z,23.83
2018-09-10T14:05:56.195Z,23.72
2018-09-10T14:08:56.140Z,24.01
2018-09-10T14:11:56.199Z,24.12
2018-09-10T14:14:56.123Z,24.29
2018-09-10T14:17:56.093Z,24.24
2018-09-10T14:20:56.044Z,24.16
2018-09-10T14:23:56.023Z,23.77
2018-09-10T14:26:55.948Z,23.65
2018-09-10T14:29:55.941Z,23.67
2018-09-10T14:32:55.888Z,23.61
2018-09-10T14:35:55.873Z,23.60
2018-09-10T14:38:55.814Z,23.90
2018-09-10T14:41:55.791Z,24.14
2018-09-10T14:44:55.736Z,23.86
2018-09-10T14:47:55.725Z,23.80
2018-09-10T14:50:55.690Z,23.92
2018-09-10T14:53:55.700Z,24.12
2018-09-10T14:56:55.605Z,24.34
2018-09-10T14:59:55.587Z,24.80
2018-09-10T15:02:55.538Z,24.92
2018-09-10T15:05:55.582Z,25.25
2018-09-10T15:08:55.493Z,25.89
2018-09-10T15:11:55.513Z,25.38
2018-09-10T15:14:55.438Z,25.07
2018-09-10T15:17:55.403Z,25.13
2018-09-10T15:20:55.346Z,25.59
2018-09-10T15:23:55.324Z,25.91
2018-09-10T15:26:55.300Z,26.18
2018-09-10T15:29:55.251Z,26.79
2018-09-10T15:32:55.212Z,26.24
2018-09-10T15:35:55.196Z,26.62
2018-09-10T15:38:55.152Z,26.39
2018-09-10T15:41:55.123Z,25.98
2018-09-10T15:44:55.120Z,26.61
2018-09-10T15:47:55.072Z,26.05
2018-09-10T15:50:55.026Z,24.88
2018-09-10T15:53:54.996Z,24.42
2018-09-10T15:56:54.978Z,24.08
2018-09-10T15:59:54.971Z,24.12
2018-09-10T16:02:54.880Z,23.79
2018-09-10T16:05:54.897Z,23.61
2018-09-10T16:08:54.828Z,23.50
2018-09-10T16:11:54.820Z,23.60
2018-09-10T16:14:54.747Z,23.53
2018-09-10T16:17:54.761Z,23.15
2018-09-10T16:20:54.696Z,23.04
2018-09-10T16:23:54.669Z,23.05
2018-09-10T16:26:54.625Z,23.08
2018-09-10T16:29:54.611Z,23.07
2018-09-10T16:32:54.637Z,23.07
2018-09-10T16:35:54.591Z,22.96
2018-09-10T16:38:54.522Z,22.84
2018-09-10T16:41:54.487Z,22.87
2018-09-10T16:44:54.417Z,22.69
2018-09-10T16:47:54.547Z,22.75
2018-09-10T16:50:54.428Z,22.65
2018-09-10T16:53:54.467Z,22.52
2018-09-10T16:56:54.319Z,22.50
2018-09-10T16:59:54.322Z,22.50
2018-09-10T17:02:54.236Z,22.38
2018-09-10T17:05:54.250Z,22.39
2018-09-10T17:08:56.700Z,22.38
2018-09-10T17:11:54.151Z,22.35
2018-09-10T17:14:54.209Z,22.29
2018-09-10T17:17:54.083Z,22.23
2018-09-10T17:20:54.023Z,22.17
2018-09-10T17:23:54.024Z,22.01
2018-09-10T17:26:53.949Z,21.83
2018-09-10T17:29:53.976Z,21.67
2018-09-10T17:32:53.897Z,21.60
2018-09-10T17:35:53.860Z,21.48
2018-09-10T17:38:53.847Z,21.45
2018-09-10T17:41:53.789Z,21.32
2018-09-10T17:44:53.754Z,21.08
2018-09-10T17:47:53.763Z,21.09
2018-09-10T17:50:53.727Z,20.96
2018-09-10T17:53:53.657Z,20.83
2018-09-10T17:56:53.661Z,20.76
2018-09-10T17:59:53.638Z,20.58
2018-09-10T18:02:53.589Z,20.46
2018-09-10T18:05:53.582Z,20.41
2018-09-10T18:08:53.509Z,20.39
2018-09-10T18:11:53.785Z,20.39
2018-09-10T18:14:53.479Z,20.46
2018-09-10T18:17:53.417Z,20.47
2018-09-10T18:20:53.409Z,20.53
2018-09-10T18:23:55.275Z,20.47
2018-09-10T18:26:53.325Z,20.68
2018-09-10T18:29:53.331Z,20.53
2018-09-10T18:32:53.264Z,20.47
2018-09-10T18:35:53.274Z,20.42
2018-09-10T18:38:53.184Z,20.49
2018-09-10T18:41:54.746Z,20.38
2018-09-10T18:44:53.078Z,20.39
2018-09-10T18:47:53.068Z,20.33
2018-09-10T18:50:53.019Z,20.30
2018-09-10T18:53:52.998Z,20.28
2018-09-10T18:56:52.945Z,20.13
2018-09-10T18:59:52.916Z,20.09
2018-09-10T19:02:52.874Z,19.93
2018-09-10T19:05:52.863Z,19.73
2018-09-10T19:08:52.801Z,19.47
2018-09-10T19:11:52.790Z,19.23
2018-09-10T19:14:52.754Z,19.28
2018-09-10T19:17:52.730Z,19.01
2018-09-10T19:20:52.744Z,18.87
2018-09-10T19:23:52.659Z,18.65
2018-09-10T19:26:52.621Z,18.58
2018-09-10T19:29:52.579Z,18.54
2018-09-10T19:32:52.549Z,18.57
2018-09-10T19:35:52.516Z,18.50
2018-09-10T19:38:52.470Z,18.54
2018-09-10T19:41:52.458Z,18.58
2018-09-10T19:44:52.398Z,18.73
2018-09-10T19:47:52.392Z,18.74
2018-09-10T19:50:52.409Z,18.72
2018-09-10T19:53:52.341Z,18.59
2018-09-10T19:56:52.264Z,18.52
2018-09-10T19:59:52.258Z,18.52
2018-09-10T20:02:52.218Z,18.50
2018-09-10T20:05:52.181Z,18.62
2018-09-10T20:08:52.148Z,18.59
2018-09-10T20:11:52.113Z,18.73
2018-09-10T20:14:52.071Z,18.61
2018-09-10T20:17:52.067Z,18.65
2018-09-10T20:20:51.996Z,18.61
2018-09-10T20:23:51.991Z,18.57
2018-09-10T20:26:51.949Z,18.47
2018-09-10T20:29:51.911Z,18.46
2018-09-10T20:32:51.906Z,18.36
2018-09-10T20:35:52.744Z,18.24
2018-09-10T20:38:52.710Z,18.22
2018-09-10T20:41:51.800Z,18.24
2018-09-10T20:44:52.716Z,18.21
2018-09-10T20:47:51.719Z,18.15
2018-09-10T20:50:51.663Z,18.07
2018-09-10T20:53:51.660Z,18.07
2018-09-10T20:56:51.663Z,18.06
2018-09-10T20:59:51.609Z,17.97
2018-09-10T21:02:51.528Z,17.95
2018-09-10T21:05:51.511Z,17.95
2018-09-10T21:08:51.469Z,17.87
2018-09-10T21:11:51.474Z,17.71
2018-09-10T21:14:51.407Z,17.69
2018-09-10T21:17:51.387Z,17.55
2018-09-10T21:20:51.358Z,17.64
2018-09-10T21:23:51.315Z,17.55
2018-09-10T21:26:51.373Z,17.54
2018-09-10T21:29:51.288Z,17.47
2018-09-10T21:32:51.209Z,17.40
2018-09-10T21:35:51.179Z,17.36
2018-09-10T21:38:51.123Z,17.29
2018-09-10T21:41:51.114Z,17.25
2018-09-10T21:44:51.064Z,17.17
2018-09-10T21:47:51.038Z,17.13
2018-09-10T21:50:50.994Z,17.04
2018-09-10T21:53:50.992Z,17.20
2018-09-10T21:56:51.007Z,17.18
2018-09-10T21:59:50.915Z,17.15
2018-09-10T22:02:50.881Z,17.08
2018-09-10T22:05:50.861Z,17.07
2018-09-10T22:08:50.816Z,16.89
2018-09-10T22:11:50.774Z,16.77
2018-09-10T22:14:50.747Z,16.75
2018-09-10T22:17:52.261Z,16.68
2018-09-10T22:20:50.669Z,16.59
2018-09-10T22:23:50.645Z,16.44
2018-09-10T22:26:50.623Z,16.52
2018-09-10T22:29:52.248Z,16.38
2018-09-10T22:32:50.544Z,16.33
2018-09-10T22:35:50.532Z,16.30
2018-09-10T22:38:50.475Z,16.14
2018-09-10T22:41:50.435Z,16.06
2018-09-10T22:44:50.418Z,16.00
2018-09-10T22:47:50.715Z,15.96
2018-09-10T22:50:50.356Z,15.93
2018-09-10T22:53:50.343Z,15.72
2018-09-10T22:56:50.301Z,15.63
2018-09-10T22:59:50.237Z,15.72
2018-09-10T23:02:50.186Z,15.74
2018-09-10T23:05:50.185Z,15.79
2018-09-10T23:08:50.142Z,15.93
2018-09-10T23:11:51.749Z,15.99
2018-09-10T23:14:50.066Z,16.00
2018-09-10T23:17:50.061Z,15.93
2018-09-10T23:20:49.990Z,16.00
2018-09-10T23:23:49.979Z,16.18
2018-09-10T23:26:49.943Z,16.18
2018-09-10T23:29:49.911Z,16.27
2018-09-10T23:32:49.879Z,16.20
2018-09-10T23:35:49.844Z,16.34
2018-09-10T23:38:49.812Z,16.22
2018-09-10T23:41:49.779Z,16.23
2018-09-10T23:44:49.776Z,16.23
2018-09-10T23:47:49.730Z,16.23
2018-09-10T23:50:49.658Z,16.37
2018-09-10T23:53:49.635Z,16.31
2018-09-10T23:56:49.584Z,16.34
2018-09-10T23:59:49.575Z,16.34
